Latest Weather Observations for Darwin Airport

IDD60901

Issued at 12:21 pm CST Wednesday 10 February 2016 (issued every 10 minutes, with the page automatically refreshed every 10 minutes)

About weather observations | Map of Darwin area stations | Latest observations for Darwin area | Other Formats
Station Details ID: 014015 Name: DARWIN AIRPORT Lat: -12.42 Lon: 130.89 Height: 30.4 m
Data from the previous 72 hours. | See also: Recent months at Darwin Airport
Date/Time
CST
Tmp

°C
App
Tmp
°C
Dew
Point
°C
Rel
Hum
%
Delta-T

°C
Wind Press
QNH
hPa
Press
MSL
hPa
Rain
since
9 am
mm
Dir
 
Spd
km/h
Gust
km/h
Spd
kts
Gust
kts
10/12:00pm 31.8 33.6 24.9 67 4.9 WNW 24 32 13 17 1007.6 1007.3 0.0
10/11:30am 31.7 34.0 24.4 65 5.1 W 20 33 11 18 1007.7 1007.4 0.0
10/11:00am 32.1 34.4 25.0 66 5.0 W 22 30 12 16 1007.9 1007.6 0.0
10/10:30am 31.8 33.4 24.5 65 5.1 W 24 32 13 17 1008.0 1007.7 0.0
10/10:00am 31.0 32.8 25.4 72 4.0 WNW 26 32 14 17 1008.3 1008.0 0.0
10/09:30am 31.2 33.9 25.1 70 4.3 W 20 28 11 15 1008.5 1008.2 0.0
10/09:00am 30.9 33.9 25.2 71 4.0 W 19 28 10 15 1008.5 1008.2 Trace
10/08:30am 30.6 33.9 25.7 75 3.5 W 19 22 10 12 1008.2 1007.9 -
10/08:00am 29.9 33.6 25.7 78 3.0 W 17 22 9 12 1008.1 1007.8 -
10/07:30am 29.0 33.6 25.9 83 2.2 W 13 19 7 10 1007.8 1007.5 -
10/07:00am 28.5 33.1 26.0 86 1.8 W 13 17 7 9 1007.4 1007.1 -
10/06:30am 28.5 33.2 26.1 87 1.7 WNW 13 15 7 8 1006.9 1006.6 -
10/06:00am 28.5 33.2 26.1 87 1.7 W 13 15 7 8 1006.6 1006.3 -
10/05:30am 27.9 32.8 25.8 88 1.5 W 11 15 6 8 1006.2 1005.9 -
10/05:00am 27.3 31.6 25.5 90 1.3 W 13 15 7 8 1006.0 1005.7 -
10/04:30am 27.0 31.7 25.0 89 1.4 WSW 9 11 5 6 1006.1 1005.8 -
10/04:00am 27.1 32.1 25.4 90 1.2 WSW 9 9 5 5 1006.0 1005.7 -
10/03:30am 27.6 32.5 25.3 87 1.6 W 9 11 5 6 1006.2 1005.9 -
10/03:00am 27.9 32.8 25.2 85 1.9 W 9 11 5 6 1006.4 1006.1 0.0
10/02:30am 27.8 34.2 24.9 84 2.0 CALM 0 0 0 0 1006.6 1006.3 -
10/02:00am 28.3 33.0 24.9 82 2.4 WNW 9 11 5 6 1007.1 1006.8 -
10/01:30am 28.8 32.5 24.5 77 3.0 NW 13 19 7 10 1007.2 1006.9 -
10/01:00am 27.9 32.2 24.9 84 2.1 NNW 11 13 6 7 1007.5 1007.2 -
10/12:30am 27.4 32.1 25.0 87 1.7 NNW 9 11 5 6 1008.2 1007.9 -
10/12:00am 27.4 32.0 24.8 86 1.8 NNW 9 11 5 6 1008.3 1008.0 -
 
Date/Time
CST
Tmp

°C
App
Tmp
°C
Dew
Point
°C
Rel
Hum
%
Delta-T

°C
Wind Press
QNH
hPa
Press
MSL
hPa
Rain
since
9 am
mm
Dir
 
Spd
km/h
Gust
km/h
Spd
kts
Gust
kts
09/11:30pm 27.4 31.8 24.4 84 2.1 N 9 11 5 6 1008.6 1008.3 -
09/11:00pm 27.5 31.8 24.2 82 2.3 NNW 9 13 5 7 1008.6 1008.3 -
09/10:30pm 27.8 31.9 23.9 79 2.7 NW 9 9 5 5 1008.4 1008.1 -
09/10:00pm 27.5 31.2 23.9 81 2.5 WNW 11 13 6 7 1008.5 1008.2 -
09/09:30pm 27.6 31.6 23.7 79 2.7 SW 9 13 5 7 1008.8 1008.5 -
09/09:00pm 27.6 30.8 23.1 76 3.1 W 11 15 6 8 1008.3 1008.0 Trace
09/08:30pm 27.7 30.2 23.8 79 2.7 WSW 17 26 9 14 1008.4 1008.1 -
09/08:00pm 27.9 30.8 23.8 78 2.8 W 15 19 8 10 1008.0 1007.7 -
09/07:30pm 27.2 30.3 23.6 81 2.5 WSW 13 19 7 10 1007.5 1007.2 -
09/07:00pm 27.3 30.4 23.5 80 2.6 SW 13 19 7 10 1007.5 1007.2 -
09/06:30pm 27.1 29.4 24.4 85 1.9 SSW 20 32 11 17 1007.5 1007.2 -
09/06:00pm 27.7 29.8 23.8 79 2.7 WSW 19 22 10 12 1007.2 1006.9 -
09/05:30pm 26.7 29.8 24.1 86 1.8 S 15 19 8 10 1007.4 1007.1 -
09/05:00pm 26.9 27.3 21.7 73 3.5 SSE 22 30 12 16 1007.6 1007.3 -
09/04:36pm 26.6 25.5 22.8 79 2.6 SSE 33 54 18 29 1006.9 1006.6 0.0
09/04:30pm 28.5 28.3 22.8 71 3.9 S 28 54 15 29 1006.6 1006.3 -
09/04:29pm 28.8 28.5 22.6 69 4.2 SSW 28 54 15 29 1006.6 1006.3 -
09/04:00pm 32.7 34.7 24.6 62 5.7 W 22 30 12 16 1006.4 1006.1 -
09/03:30pm 33.0 33.7 24.3 60 6.1 WNW 28 37 15 20 1005.9 1005.6 -
09/03:00pm 33.3 34.2 25.3 63 5.7 WNW 30 35 16 19 1006.2 1005.9 0.0
09/02:30pm 32.9 33.5 24.8 62 5.7 WNW 30 35 16 19 1006.5 1006.2 0.0
09/02:00pm 33.5 35.1 25.7 63 5.6 NW 28 33 15 18 1007.1 1006.8 0.0
09/01:30pm 33.2 35.2 25.8 65 5.3 WNW 26 32 14 17 1007.7 1007.4 0.0
09/01:00pm 32.3 35.4 25.7 68 4.7 NW 20 30 11 16 1008.1 1007.8 -
09/12:30pm 32.5 36.2 25.8 68 4.8 NW 17 24 9 13 1008.5 1008.2 -
09/12:00pm 32.4 36.3 25.4 66 5.0 WNW 15 22 8 12 1008.7 1008.4 -
09/11:30am 31.8 35.7 25.5 69 4.5 NW 15 20 8 11 1008.9 1008.6 -
09/11:00am 31.7 36.0 25.5 69 4.4 WNW 13 19 7 10 1009.2 1009.0 0.0
09/10:30am 31.7 35.4 25.8 71 4.2 WNW 17 22 9 12 1009.6 1009.4 0.0
09/10:00am 31.0 35.0 25.0 70 4.2 NW 13 19 7 10 1009.8 1009.6 0.0
09/09:30am 30.7 34.8 25.2 72 3.9 NW 13 17 7 9 1009.8 1009.6 0.0
09/09:00am 30.4 34.0 25.0 73 3.8 WNW 15 19 8 10 1009.6 1009.4 0.0
09/08:30am 30.1 34.0 24.8 73 3.7 WNW 13 17 7 9 1009.3 1009.1 0.0
09/08:00am 29.6 34.1 25.2 77 3.1 WNW 11 13 6 7 1009.0 1008.7 0.0
09/07:30am 28.8 33.8 26.0 85 2.0 WNW 11 13 6 7 1008.7 1008.4 0.0
09/07:00am 28.2 33.3 26.1 88 1.5 NW 11 13 6 7 1008.4 1008.1 0.0
09/06:30am 27.8 32.9 26.1 90 1.2 WNW 11 15 6 8 1008.0 1007.7 0.0
09/06:00am 28.0 33.0 26.0 89 1.4 WNW 11 13 6 7 1007.8 1007.5 0.0
09/05:30am 28.1 33.1 26.0 88 1.5 WNW 11 15 6 8 1007.5 1007.2 0.0
09/05:00am 28.1 32.1 25.6 86 1.8 WNW 15 17 8 9 1007.2 1006.9 0.0
09/04:30am 28.1 31.6 25.4 85 1.9 NW 17 20 9 11 1007.0 1006.7 0.0
09/04:00am 28.0 32.2 25.4 86 1.8 WNW 13 15 7 8 1007.0 1006.7 0.0
09/03:30am 28.0 32.0 25.0 84 2.1 WNW 13 15 7 8 1007.1 1006.8 0.0
09/03:00am 27.9 32.4 25.2 85 1.9 WNW 11 15 6 8 1007.3 1007.0 0.0
09/02:30am 27.9 32.6 25.5 87 1.7 W 11 13 6 7 1007.6 1007.3 0.0
09/02:00am 27.9 32.3 25.6 87 1.6 WNW 13 15 7 8 1007.6 1007.3 0.0
09/01:30am 27.8 32.8 26.0 90 1.3 WNW 11 13 6 7 1008.0 1007.7 0.0
09/01:00am 27.9 32.3 25.6 87 1.6 W 13 15 7 8 1008.3 1008.0 0.0
09/12:30am 27.8 32.6 25.7 88 1.5 W 11 13 6 7 1008.5 1008.2 0.0
09/12:00am 26.9 32.0 25.5 92 1.0 WNW 9 11 5 6 1008.6 1008.3 0.0
 
Date/Time
CST
Tmp

°C
App
Tmp
°C
Dew
Point
°C
Rel
Hum
%
Delta-T

°C
Wind Press
QNH
hPa
Press
MSL
hPa
Rain
since
9 am
mm
Dir
 
Spd
km/h
Gust
km/h
Spd
kts
Gust
kts
08/11:30pm 26.5 31.9 25.4 94 0.8 NW 7 9 4 5 1008.7 1008.4 0.0
08/11:00pm 26.8 33.5 25.4 92 1.0 CALM 0 6 0 3 1008.9 1008.6 0.0
08/10:30pm 26.7 31.7 25.4 93 0.9 NW 9 11 5 6 1008.9 1008.6 0.0
08/10:00pm 26.8 31.6 25.1 90 1.2 NNW 9 9 5 5 1008.6 1008.3 0.0
08/09:30pm 26.9 32.0 24.9 89 1.4 NNW 7 9 4 5 1008.5 1008.2 0.0
08/09:00pm 27.5 33.5 24.9 86 1.8 NNW 2 7 1 4 1008.5 1008.2 0.0
08/08:30pm 28.0 34.7 25.4 86 1.8 CALM 0 0 0 0 1008.2 1007.9 0.0
08/08:00pm 28.5 32.8 24.9 81 2.5 NW 11 15 6 8 1007.9 1007.6 0.0
08/07:30pm 28.8 32.3 24.2 76 3.2 NNW 13 15 7 8 1007.4 1007.1 0.0
08/07:00pm 28.8 32.6 23.4 72 3.7 WNW 9 11 5 6 1007.3 1007.0 0.0
08/06:30pm 28.9 31.9 22.6 69 4.3 WNW 11 15 6 8 1007.0 1006.7 0.0
08/06:00pm 29.2 31.8 22.6 67 4.5 WNW 13 15 7 8 1006.9 1006.6 0.0
08/05:30pm 28.9 30.7 22.6 69 4.3 W 17 20 9 11 1006.9 1006.6 0.0
08/05:00pm 29.0 30.2 22.2 66 4.6 W 19 22 10 12 1006.6 1006.3 0.0
08/04:30pm 29.6 30.8 20.6 58 6.0 WSW 15 20 8 11 1006.8 1006.5 0.0
08/04:15pm 28.8 29.9 21.3 64 5.0 SSW 17 24 9 13 1007.0 1006.7 0.0
08/04:00pm 28.9 29.3 20.9 62 5.3 SSE 20 28 11 15 1007.0 1006.7 0.0
08/03:48pm 28.5 29.7 22.5 70 4.1 SSE 20 24 11 13 1006.7 1006.4 0.0
08/03:30pm 28.6 28.8 22.1 68 4.4 ESE 24 35 13 19 1007.0 1006.7 0.0
08/03:00pm 29.6 31.9 23.4 69 4.3 NNE 17 20 9 11 1007.1 1006.8 0.0
08/02:30pm 27.9 29.4 23.7 78 2.9 NE 22 30 12 16 1007.5 1007.2 0.0
08/02:00pm 30.7 33.9 25.5 74 3.7 WNW 19 24 10 13 1007.3 1007.0 0.0
08/01:30pm 31.1 34.7 25.6 72 3.9 WNW 17 22 9 12 1007.7 1007.4 0.0
08/01:00pm 31.0 33.9 25.1 71 4.2 WNW 19 26 10 14 1008.1 1007.8 0.0
08/12:30pm 31.3 34.6 25.1 69 4.4 NW 17 24 9 13 1008.6 1008.3 0.0
08/12:00pm 31.6 35.8 25.9 72 4.1 NW 15 20 8 11 1008.9 1008.6 0.0
08/11:30am 31.5 34.9 25.3 69 4.4 WNW 17 22 9 12 1009.3 1009.1 0.0
08/11:00am 32.4 36.8 25.1 65 5.2 NW 11 19 6 10 1009.3 1009.1 0.0
08/10:30am 31.4 35.5 24.6 67 4.8 WNW 11 19 6 10 1009.4 1009.2 0.0
08/10:00am 30.7 35.3 24.7 70 4.2 W 9 15 5 8 1009.4 1009.2 0.0
08/09:30am 30.6 35.1 25.2 73 3.8 WNW 11 17 6 9 1009.5 1009.3 0.0
08/09:00am 30.0 34.7 25.0 74 3.5 NW 9 17 5 9 1009.4 1009.2 0.6
08/08:30am 29.3 35.1 26.1 83 2.3 NNW 7 11 4 6 1009.3 1009.1 0.6
08/08:00am 28.6 33.9 25.8 85 2.0 N 9 13 5 7 1008.9 1008.6 0.6
08/07:30am 27.1 32.2 25.5 91 1.1 E 9 9 5 5 1008.9 1008.6 0.6
08/07:00am 26.7 32.1 25.4 93 0.9 E 7 7 4 4 1008.7 1008.4 0.6
08/06:30am 26.7 32.3 25.7 94 0.7 ENE 7 9 4 5 1008.4 1008.1 0.6
08/06:00am 26.8 32.4 25.8 94 0.7 E 7 7 4 4 1008.1 1007.8 0.6
08/05:30am 26.8 32.0 25.7 94 0.8 E 9 9 5 5 1008.0 1007.7 0.6
08/05:00am 26.9 33.1 25.8 94 0.8 E 4 9 2 5 1008.0 1007.7 0.6
08/04:30am 27.1 34.0 25.7 92 1.0 CALM 0 0 0 0 1008.1 1007.8 0.6
08/04:00am 27.1 33.9 25.5 91 1.1 CALM 0 0 0 0 1008.0 1007.7 0.6
08/03:30am 27.0 34.2 26.2 95 0.6 CALM 0 0 0 0 1008.0 1007.7 0.6
08/03:00am 26.9 33.4 25.6 93 0.9 SSE 2 7 1 4 1008.1 1007.8 0.6
08/02:30am 27.2 32.6 25.4 90 1.3 S 7 9 4 5 1008.2 1007.9 0.6
08/02:00am 27.1 33.1 25.5 91 1.1 S 4 7 2 4 1008.1 1007.8 0.6
08/01:30am 26.7 33.5 25.6 94 0.8 CALM 0 0 0 0 1008.5 1008.2 0.6
08/01:00am 26.8 33.6 25.5 93 0.9 CALM 0 0 0 0 1008.9 1008.6 0.6
08/12:30am 26.7 33.0 25.4 93 0.9 E 2 6 1 3 1009.1 1008.8 0.6
08/12:00am 27.0 31.0 25.0 89 1.4 SSE 13 15 7 8 1009.4 1009.2 0.6
 
Date/Time
CST
Tmp

°C
App
Tmp
°C
Dew
Point
°C
Rel
Hum
%
Delta-T

°C
Wind Press
QNH
hPa
Press
MSL
hPa
Rain
since
9 am
mm
Dir
 
Spd
km/h
Gust
km/h
Spd
kts
Gust
kts
07/11:30pm 27.2 32.2 25.4 90 1.3 WSW 9 13 5 7 1009.5 1009.3 0.6
07/11:00pm 27.2 33.9 25.4 90 1.3 CALM 0 0 0 0 1009.5 1009.3 0.6
07/10:30pm 27.4 32.3 25.3 88 1.5 W 9 11 5 6 1009.4 1009.2 0.6
07/10:00pm 27.4 32.8 26.0 92 1.0 W 9 11 5 6 1009.3 1009.1 0.6
07/09:30pm 27.4 33.5 25.6 90 1.3 WNW 4 7 2 4 1009.0 1008.7 0.6
07/09:00pm 27.4 32.7 25.3 88 1.5 NNW 7 9 4 5 1008.6 1008.3 0.6
07/08:30pm 27.1 33.6 25.1 89 1.4 CALM 0 0 0 0 1008.2 1007.9 0.6
07/08:00pm 26.9 33.5 25.2 90 1.2 CALM 0 0 0 0 1007.8 1007.5 0.6
07/07:30pm 26.9 31.5 24.7 88 1.5 ESE 9 9 5 5 1007.9 1007.6 0.6
07/07:00pm 26.4 31.1 25.0 92 1.0 SSE 9 11 5 6 1007.8 1007.5 0.6
07/06:30pm 26.8 31.1 24.9 89 1.3 SSW 11 13 6 7 1007.2 1006.9 0.6
07/06:00pm 26.6 30.8 25.3 93 0.9 SSW 13 17 7 9 1006.7 1006.4 0.4
07/05:30pm 28.5 29.3 24.5 79 2.8 SSW 28 35 15 19 1006.6 1006.3 0.2
07/05:00pm 31.4 34.1 23.5 63 5.5 WNW 15 22 8 12 1006.4 1006.1 0.0
07/04:30pm 31.5 33.1 22.8 60 6.0 WNW 19 26 10 14 1006.1 1005.8 0.0
07/04:00pm 32.1 33.6 23.0 58 6.3 WNW 20 28 11 15 1006.2 1005.9 0.0
07/03:30pm 32.2 33.8 23.2 59 6.2 WNW 20 26 11 14 1006.1 1005.8 0.0
07/03:00pm 32.0 33.8 23.5 60 5.9 WNW 20 28 11 15 1005.7 1005.4 0.0
07/02:30pm 32.0 32.7 22.9 58 6.3 NW 24 30 13 16 1006.2 1005.9 0.0
07/02:00pm 31.3 33.2 23.4 63 5.5 NW 19 26 10 14 1006.8 1006.5 0.0
07/01:30pm 31.4 33.6 24.3 66 5.0 NNW 20 28 11 15 1007.1 1006.8 0.0
07/01:00pm 31.1 33.1 24.5 68 4.6 NW 22 30 12 16 1007.6 1007.3 0.0
07/12:30pm 31.0 34.2 24.9 70 4.3 NW 17 24 9 13 1008.0 1007.7 0.0

Latest Capital City Observations: Canberra | Sydney | Melbourne | Brisbane | Adelaide | Perth | Hobart | Darwin

Other Formats:

Comma delimited format used in spreadsheet applications
http://www.bom.gov.au/fwo/IDD60901/IDD60901.94120.axf

JavaScript Object Notation format (JSON) in row-major order
http://www.bom.gov.au/fwo/IDD60901/IDD60901.94120.json